Time,TemperatureF,DewpointF,PressureIn,WindDirection,WindDirectionDegrees,WindSpeedMPH,WindSpeedGustMPH,Humidity,HourlyPrecipIn,Conditions,Clouds,dailyrainin,SoftwareType,DateUTC
2013-10-05 00:00:00,80.9,72.2,30.02,ENE,58,2.0,3.0,75,0.00,,,0.00,Wunderground v.1.15,2013-10-05 04:00:00,
2013-10-05 00:04:00,81.0,72.3,30.02,ENE,76,2.0,3.0,75,0.00,,,0.00,Wunderground v.1.15,2013-10-05 04:04:00,
2013-10-05 00:09:00,81.0,72.7,30.02,East,79,2.0,2.0,76,0.00,,,0.00,Wunderground v.1.15,2013-10-05 04:09:00,
2013-10-05 00:14:00,81.0,72.7,30.02,ENE,75,2.0,2.0,76,0.00,,,0.00,Wunderground v.1.15,2013-10-05 04:14:00,
2013-10-05 00:19:00,81.0,73.1,30.02,ENE,68,2.0,-999.0,77,0.00,,,0.00,Wunderground v.1.15,2013-10-05 04:19:00,
2013-10-05 00:24:00,81.0,73.1,30.02,ENE,72,2.0,4.0,77,0.00,,,0.00,Wunderground v.1.15,2013-10-05 04:24:00,
2013-10-05 00:29:00,81.0,73.1,30.02,ENE,68,2.0,-999.0,77,0.00,,,0.00,Wunderground v.1.15,2013-10-05 04:29:00,
2013-10-05 00:30:00,81.0,73.1,30.02,East,82,2.0,5.0,77,0.00,,,0.00,Wunderground v.1.15,2013-10-05 04:30:00,
2013-10-05 00:34:00,81.0,73.1,30.02,ENE,68,2.0,-999.0,77,0.00,,,0.00,Wunderground v.1.15,2013-10-05 04:34:00,
2013-10-05 00:39:00,80.9,73.0,30.02,East,101,2.0,2.0,77,0.00,,,0.00,Wunderground v.1.15,2013-10-05 04:39:00,
2013-10-05 00:44:00,81.0,73.1,30.02,East,79,2.0,2.0,77,0.00,,,0.00,Wunderground v.1.15,2013-10-05 04:44:00,
2013-10-05 00:49:00,81.0,73.1,30.02,East,90,1.0,-999.0,77,0.00,,,0.00,Wunderground v.1.15,2013-10-05 04:49:00,
2013-10-05 00:54:00,81.0,73.1,30.02,ENE,68,2.0,-999.0,77,0.00,,,0.00,Wunderground v.1.15,2013-10-05 04:54:00,
2013-10-05 00:55:00,81.0,73.1,30.02,SSE,166,2.0,2.0,77,0.00,,,0.00,Wunderground v.1.15,2013-10-05 04:55:00,
2013-10-05 00:59:00,81.0,73.1,30.01,East,90,2.0,-999.0,77,0.00,,,0.00,Wunderground v.1.15,2013-10-05 04:59:00,
2013-10-05 01:00:00,81.0,73.1,30.02,SE,132,2.0,3.0,77,0.00,,,0.00,Wunderground v.1.15,2013-10-05 05:00:00,
2013-10-05 01:04:00,81.0,73.1,30.02,East,90,2.0,-999.0,77,0.00,,,0.00,Wunderground v.1.15,2013-10-05 05:04:00,
2013-10-05 01:09:00,81.0,73.1,30.02,East,90,2.0,-999.0,77,0.00,,,0.00,Wunderground v.1.15,2013-10-05 05:09:00,
2013-10-05 01:10:00,81.0,73.1,30.01,ENE,78,2.0,2.0,77,0.00,,,0.00,Wunderground v.1.15,2013-10-05 05:10:00,
2013-10-05 01:14:00,81.0,73.1,30.01,ENE,68,2.0,-999.0,77,0.00,,,0.00,Wunderground v.1.15,2013-10-05 05:14:00,
2013-10-05 01:19:00,80.9,73.0,30.01,East,90,3.0,-999.0,77,0.00,,,0.00,Wunderground v.1.15,2013-10-05 05:19:00,
2013-10-05 01:20:00,80.9,73.0,30.01,East,101,2.0,4.0,77,0.00,,,0.00,Wunderground v.1.15,2013-10-05 05:20:00,
2013-10-05 01:24:00,80.9,73.0,30.01,ENE,68,2.0,-999.0,77,0.00,,,0.00,Wunderground v.1.15,2013-10-05 05:24:00,
2013-10-05 01:29:00,80.8,72.9,30.01,ESE,107,2.0,2.0,77,0.00,,,0.00,Wunderground v.1.15,2013-10-05 05:29:00,
2013-10-05 01:34:00,80.8,72.9,30.01,ESE,113,1.0,-999.0,77,0.00,,,0.00,Wunderground v.1.15,2013-10-05 05:34:00,
2013-10-05 01:39:00,80.7,72.8,30.01,ENE,60,1.0,1.0,77,0.00,,,0.00,Wunderground v.1.15,2013-10-05 05:39:00,
2013-10-05 01:44:00,80.6,72.7,30.01,ENE,68,1.0,-999.0,77,0.00,,,0.00,Wunderground v.1.15,2013-10-05 05:44:00,
2013-10-05 01:45:00,80.6,72.7,30.01,ENE,74,2.0,2.0,77,0.00,,,0.00,Wunderground v.1.15,2013-10-05 05:45:00,
2013-10-05 01:49:00,80.6,72.7,30.01,ENE,68,1.0,-999.0,77,0.00,,,0.00,Wunderground v.1.15,2013-10-05 05:49:00,
2013-10-05 01:54:00,80.5,72.6,30.00,East,90,1.0,-999.0,77,0.00,,,0.00,Wunderground v.1.15,2013-10-05 05:54:00,
2013-10-05 01:55:00,80.5,72.6,30.00,ESE,106,1.0,2.0,77,0.00,,,0.00,Wunderground v.1.15,2013-10-05 05:55:00,
2013-10-05 01:59:00,80.5,73.0,30.00,ENE,68,1.0,-999.0,78,0.00,,,0.00,Wunderground v.1.15,2013-10-05 05:59:00,
2013-10-05 02:00:00,80.5,73.0,30.00,SSE,159,1.0,3.0,78,0.00,,,0.00,Wunderground v.1.15,2013-10-05 06:00:00,
2013-10-05 02:04:00,80.5,73.0,30.00,ESE,113,2.0,-999.0,78,0.00,,,0.00,Wunderground v.1.15,2013-10-05 06:04:00,
2013-10-05 02:09:00,80.5,73.0,30.00,ESE,113,2.0,-999.0,78,0.00,,,0.00,Wunderground v.1.15,2013-10-05 06:09:00,
2013-10-05 02:10:00,80.5,73.0,30.00,ESE,115,2.0,2.0,78,0.00,,,0.00,Wunderground v.1.15,2013-10-05 06:10:00,
2013-10-05 02:14:00,80.4,72.9,30.00,SE,135,1.0,-999.0,78,0.00,,,0.00,Wunderground v.1.15,2013-10-05 06:14:00,
2013-10-05 02:19:00,80.3,72.8,30.00,ESE,112,1.0,1.0,78,0.00,,,0.00,Wunderground v.1.15,2013-10-05 06:19:00,
2013-10-05 02:24:00,80.3,72.8,29.99,ESE,113,2.0,-999.0,78,0.00,,,0.00,Wunderground v.1.15,2013-10-05 06:24:00,
2013-10-05 02:29:00,80.4,72.9,29.99,East,90,1.0,-999.0,78,0.00,,,0.00,Wunderground v.1.15,2013-10-05 06:29:00,
2013-10-05 02:30:00,80.4,72.9,29.99,East,101,1.0,1.0,78,0.00,,,0.00,Wunderground v.1.15,2013-10-05 06:30:00,
2013-10-05 02:34:00,80.4,73.3,29.99,East,90,1.0,-999.0,79,0.00,,,0.00,Wunderground v.1.15,2013-10-05 06:34:00,
2013-10-05 02:39:00,80.3,73.2,29.99,ENE,68,0.0,-999.0,79,0.00,,,0.00,Wunderground v.1.15,2013-10-05 06:39:00,
2013-10-05 02:40:00,80.3,73.2,29.99,ENE,64,1.0,1.0,79,0.00,,,0.00,Wunderground v.1.15,2013-10-05 06:40:00,
2013-10-05 02:44:00,80.2,73.1,29.99,ENE,68,2.0,-999.0,79,0.00,,,0.00,Wunderground v.1.15,2013-10-05 06:44:00,
2013-10-05 02:49:00,80.2,73.1,29.99,ENE,75,1.0,1.0,79,0.00,,,0.00,Wunderground v.1.15,2013-10-05 06:49:00,
2013-10-05 02:54:00,80.2,73.1,29.98,N/A,-737280,0.0,-999.0,79,0.00,,,0.00,Wunderground v.1.15,2013-10-05 06:54:00,
2013-10-05 02:55:00,80.2,73.1,29.98,SE,139,1.0,1.0,79,0.00,,,0.00,Wunderground v.1.15,2013-10-05 06:55:00,
2013-10-05 02:59:00,80.0,72.9,29.98,ENE,68,2.0,-999.0,79,0.00,,,0.00,Wunderground v.1.15,2013-10-05 06:59:00,
2013-10-05 03:00:00,80.0,72.9,29.98,ENE,70,1.0,1.0,79,0.00,,,0.00,Wunderground v.1.15,2013-10-05 07:00:00,
2013-10-05 03:04:00,80.0,72.9,29.98,ENE,68,1.0,-999.0,79,0.00,,,0.00,Wunderground v.1.15,2013-10-05 07:04:00,
2013-10-05 03:09:00,80.0,73.3,29.98,ENE,68,0.0,-999.0,80,0.00,,,0.00,Wunderground v.1.15,2013-10-05 07:09:00,
2013-10-05 03:10:00,80.0,73.3,29.98,ENE,69,1.0,1.0,80,0.00,,,0.00,Wunderground v.1.15,2013-10-05 07:10:00,
2013-10-05 03:14:00,80.0,73.3,29.98,ENE,68,2.0,-999.0,80,0.00,,,0.00,Wunderground v.1.15,2013-10-05 07:14:00,
2013-10-05 03:19:00,80.1,73.4,29.98,East,90,0.0,-999.0,80,0.00,,,0.00,Wunderground v.1.15,2013-10-05 07:19:00,
2013-10-05 03:20:00,80.1,73.4,29.98,East,81,1.0,1.0,80,0.00,,,0.00,Wunderground v.1.15,2013-10-05 07:20:00,
2013-10-05 03:24:00,80.0,73.3,29.98,ESE,113,1.0,-999.0,80,0.00,,,0.00,Wunderground v.1.15,2013-10-05 07:24:00,
2013-10-05 03:29:00,80.1,73.4,29.98,ESE,120,1.0,1.0,80,0.00,,,0.00,Wunderground v.1.15,2013-10-05 07:29:00,
2013-10-05 03:34:00,80.1,73.4,29.97,SE,135,0.0,-999.0,80,0.00,,,0.00,Wunderground v.1.15,2013-10-05 07:34:00,
2013-10-05 03:39:00,80.0,73.3,29.98,NE,38,0.0,3.0,80,0.00,,,0.00,Wunderground v.1.15,2013-10-05 07:39:00,
2013-10-05 03:44:00,79.9,73.2,29.98,ESE,113,1.0,-999.0,80,0.00,,,0.00,Wunderground v.1.15,2013-10-05 07:44:00,
2013-10-05 03:49:00,79.9,73.2,29.98,ESE,113,0.0,-999.0,80,0.00,,,0.00,Wunderground v.1.15,2013-10-05 07:49:00,
2013-10-05 03:50:00,79.9,73.2,29.98,ESE,122,0.0,0.0,80,0.00,,,0.00,Wunderground v.1.15,2013-10-05 07:50:00,
2013-10-05 03:54:00,79.8,73.1,29.98,ENE,68,1.0,-999.0,80,0.00,,,0.00,Wunderground v.1.15,2013-10-05 07:54:00,
2013-10-05 03:59:00,79.9,72.8,29.98,SE,135,2.0,-999.0,79,0.00,,,0.00,Wunderground v.1.15,2013-10-05 07:59:00,
2013-10-05 04:00:00,79.9,72.8,29.97,East,101,1.0,2.0,79,0.00,,,0.00,Wunderground v.1.15,2013-10-05 08:00:00,
2013-10-05 04:04:00,80.1,73.0,29.98,East,90,1.0,-999.0,79,0.00,,,0.00,Wunderground v.1.15,2013-10-05 08:04:00,
2013-10-05 04:09:00,80.0,72.9,29.98,ENE,70,1.0,2.0,79,0.00,,,0.00,Wunderground v.1.15,2013-10-05 08:09:00,
2013-10-05 04:14:00,80.0,72.9,29.97,ESE,113,1.0,-999.0,79,0.00,,,0.00,Wunderground v.1.15,2013-10-05 08:14:00,
2013-10-05 04:19:00,80.1,73.4,29.97,ENE,72,1.0,2.0,80,0.00,,,0.00,Wunderground v.1.15,2013-10-05 08:19:00,
2013-10-05 04:24:00,80.0,73.3,29.97,ENE,68,1.0,-999.0,80,0.00,,,0.00,Wunderground v.1.15,2013-10-05 08:24:00,
2013-10-05 04:29:00,79.8,73.1,29.97,ENE,68,2.0,-999.0,80,0.00,,,0.00,Wunderground v.1.15,2013-10-05 08:29:00,
2013-10-05 04:30:00,79.8,73.1,29.97,ENE,67,1.0,4.0,80,0.00,,,0.00,Wunderground v.1.15,2013-10-05 08:30:00,
2013-10-05 04:34:00,79.8,72.7,29.97,ENE,68,2.0,-999.0,79,0.00,,,0.00,Wunderground v.1.15,2013-10-05 08:34:00,
2013-10-05 04:39:00,79.8,72.7,29.97,ENE,68,1.0,-999.0,79,0.00,,,0.00,Wunderground v.1.15,2013-10-05 08:39:00,
2013-10-05 04:40:00,79.8,72.7,29.97,ENE,74,2.0,2.0,79,0.00,,,0.00,Wunderground v.1.15,2013-10-05 08:40:00,
2013-10-05 04:44:00,79.7,73.0,29.97,ENE,68,0.0,-999.0,80,0.00,,,0.00,Wunderground v.1.15,2013-10-05 08:44:00,
2013-10-05 04:49:00,79.4,72.7,29.97,ENE,64,0.0,0.0,80,0.00,,,0.00,Wunderground v.1.15,2013-10-05 08:49:00,
2013-10-05 04:54:00,78.9,72.6,29.97,N/A,-737280,0.0,-999.0,81,0.00,,,0.00,Wunderground v.1.15,2013-10-05 08:54:00,
2013-10-05 04:55:00,78.9,72.6,29.97,ENE,64,0.0,0.0,81,0.00,,,0.00,Wunderground v.1.15,2013-10-05 08:55:00,
2013-10-05 04:59:00,78.3,72.3,29.97,N/A,-737280,0.0,-999.0,82,0.00,,,0.00,Wunderground v.1.15,2013-10-05 08:59:00,
2013-10-05 05:00:00,78.3,72.3,29.97,ENE,64,0.0,0.0,82,0.00,,,0.00,Wunderground v.1.15,2013-10-05 09:00:00,
2013-10-05 05:04:00,77.9,72.3,29.97,ENE,68,0.0,-999.0,83,0.00,,,0.00,Wunderground v.1.15,2013-10-05 09:04:00,
2013-10-05 05:09:00,77.5,72.3,29.97,N/A,-737280,0.0,-999.0,84,0.00,,,0.00,Wunderground v.1.15,2013-10-05 09:09:00,
2013-10-05 05:10:00,77.5,72.3,29.97,ENE,58,0.0,0.0,84,0.00,,,0.00,Wunderground v.1.15,2013-10-05 09:10:00,
2013-10-05 05:14:00,77.3,72.1,29.97,N/A,-737280,0.0,-999.0,84,0.00,,,0.00,Wunderground v.1.15,2013-10-05 09:14:00,
2013-10-05 05:19:00,77.0,71.8,29.97,ENE,68,0.0,-999.0,84,0.00,,,0.00,Wunderground v.1.15,2013-10-05 09:19:00,
2013-10-05 05:20:00,77.0,71.8,29.97,ENE,60,0.0,0.0,84,0.00,,,0.00,Wunderground v.1.15,2013-10-05 09:20:00,
2013-10-05 05:24:00,76.8,71.6,29.97,ENE,68,0.0,-999.0,84,0.00,,,0.00,Wunderground v.1.15,2013-10-05 09:24:00,
2013-10-05 05:29:00,76.5,71.7,29.97,ENE,67,0.0,0.0,85,0.00,,,0.00,Wunderground v.1.15,2013-10-05 09:29:00,
2013-10-05 05:34:00,76.3,71.5,29.97,ENE,68,0.0,-999.0,85,0.00,,,0.00,Wunderground v.1.15,2013-10-05 09:34:00,
2013-10-05 05:39:00,76.1,71.3,29.97,ENE,66,0.0,1.0,85,0.00,,,0.00,Wunderground v.1.15,2013-10-05 09:39:00,
2013-10-05 05:44:00,75.9,71.4,29.97,ENE,68,0.0,-999.0,86,0.00,,,0.00,Wunderground v.1.15,2013-10-05 09:44:00,
2013-10-05 05:45:00,75.9,71.4,29.97,ENE,67,0.0,1.0,86,0.00,,,0.00,Wunderground v.1.15,2013-10-05 09:45:00,
2013-10-05 05:49:00,75.7,71.2,29.98,ENE,68,0.0,-999.0,86,0.00,,,0.00,Wunderground v.1.15,2013-10-05 09:49:00,
2013-10-05 05:54:00,75.7,71.2,29.98,ENE,66,0.0,1.0,86,0.00,,,0.00,Wunderground v.1.15,2013-10-05 09:54:00,
2013-10-05 05:59:00,75.6,71.5,29.97,ENE,68,0.0,-999.0,87,0.00,,,0.00,Wunderground v.1.15,2013-10-05 09:59:00,
2013-10-05 06:00:00,75.6,71.5,29.97,ENE,69,0.0,0.0,87,0.00,,,0.00,Wunderground v.1.15,2013-10-05 10:00:00,
2013-10-05 06:04:00,75.6,71.5,29.97,ENE,68,0.0,-999.0,87,0.00,,,0.00,Wunderground v.1.15,2013-10-05 10:04:00,
2013-10-05 06:09:00,75.6,71.1,29.98,ENE,71,0.0,0.0,86,0.00,,,0.00,Wunderground v.1.15,2013-10-05 10:09:00,
2013-10-05 06:14:00,75.5,71.4,29.98,ENE,68,0.0,-999.0,87,0.00,,,0.00,Wunderground v.1.15,2013-10-05 10:14:00,
2013-10-05 06:19:00,75.2,71.1,29.98,ENE,71,0.0,0.0,87,0.00,,,0.00,Wunderground v.1.15,2013-10-05 10:19:00,
2013-10-05 06:24:00,74.9,70.8,29.98,ENE,68,0.0,-999.0,87,0.00,,,0.00,Wunderground v.1.15,2013-10-05 10:24:00,
2013-10-05 06:29:00,74.7,70.6,29.98,N/A,-737280,0.0,-999.0,87,0.00,,,0.00,Wunderground v.1.15,2013-10-05 10:29:00,
2013-10-05 06:30:00,74.7,70.6,29.98,ENE,71,0.0,0.0,87,0.00,,,0.00,Wunderground v.1.15,2013-10-05 10:30:00,
2013-10-05 06:34:00,74.5,70.7,29.99,N/A,-737280,0.0,-999.0,88,0.00,,,0.00,Wunderground v.1.15,2013-10-05 10:34:00,
2013-10-05 06:39:00,74.3,70.5,29.98,ENE,71,0.0,0.0,88,0.00,,,0.00,Wunderground v.1.15,2013-10-05 10:39:00,
2013-10-05 06:44:00,74.2,70.7,29.99,N/A,-737280,0.0,-999.0,89,0.00,,,0.00,Wunderground v.1.15,2013-10-05 10:44:00,
2013-10-05 06:49:00,74.1,70.6,29.99,ENE,71,0.0,0.0,89,0.00,,,0.00,Wunderground v.1.15,2013-10-05 10:49:00,
2013-10-05 06:54:00,74.2,70.7,29.99,N/A,-737280,0.0,-999.0,89,0.00,,,0.00,Wunderground v.1.15,2013-10-05 10:54:00,
2013-10-05 06:55:00,74.2,70.7,29.99,ENE,71,0.0,0.0,89,0.00,,,0.00,Wunderground v.1.15,2013-10-05 10:55:00,
2013-10-05 06:59:00,74.3,70.8,29.99,N/A,-737280,0.0,-999.0,89,0.00,,,0.00,Wunderground v.1.15,2013-10-05 10:59:00,
2013-10-05 07:00:00,74.3,70.8,29.99,ENE,71,0.0,0.0,89,0.00,,,0.00,Wunderground v.1.15,2013-10-05 11:00:00,
2013-10-05 07:04:00,74.2,70.7,29.99,N/A,-737280,0.0,-999.0,89,0.00,,,0.00,Wunderground v.1.15,2013-10-05 11:04:00,
2013-10-05 07:09:00,74.1,70.6,29.99,N/A,-737280,0.0,-999.0,89,0.00,,,0.00,Wunderground v.1.15,2013-10-05 11:09:00,
2013-10-05 07:10:00,74.1,70.6,29.99,ENE,71,0.0,0.0,89,0.00,,,0.00,Wunderground v.1.15,2013-10-05 11:10:00,
2013-10-05 07:14:00,74.0,70.6,29.98,N/A,-737280,0.0,-999.0,89,0.00,,,0.00,Wunderground v.1.15,2013-10-05 11:14:00,
2013-10-05 07:19:00,73.9,70.8,29.98,N/A,-737280,0.0,-999.0,90,0.00,,,0.00,Wunderground v.1.15,2013-10-05 11:19:00,
2013-10-05 07:20:00,73.9,70.8,29.98,ENE,71,0.0,0.0,90,0.00,,,0.00,Wunderground v.1.15,2013-10-05 11:20:00,
2013-10-05 07:24:00,73.9,70.8,29.98,ENE,68,0.0,-999.0,90,0.00,,,0.00,Wunderground v.1.15,2013-10-05 11:24:00,
2013-10-05 07:29:00,74.0,70.9,29.98,ENE,71,0.0,0.0,90,0.00,,,0.00,Wunderground v.1.15,2013-10-05 11:29:00,
2013-10-05 07:34:00,74.1,71.0,29.98,ENE,68,0.0,-999.0,90,0.00,,,0.00,Wunderground v.1.15,2013-10-05 11:34:00,
2013-10-05 07:39:00,74.2,71.1,29.98,ENE,68,0.0,-999.0,90,0.00,,,0.00,Wunderground v.1.15,2013-10-05 11:39:00,
2013-10-05 07:40:00,74.2,71.1,29.98,ENE,71,0.0,0.0,90,0.00,,,0.00,Wunderground v.1.15,2013-10-05 11:40:00,
2013-10-05 07:44:00,74.7,71.6,29.98,ENE,68,0.0,-999.0,90,0.00,,,0.00,Wunderground v.1.15,2013-10-05 11:44:00,
2013-10-05 07:49:00,75.2,71.7,29.99,ENE,68,1.0,-999.0,89,0.00,,,0.00,Wunderground v.1.15,2013-10-05 11:49:00,
2013-10-05 07:50:00,75.2,71.7,29.99,ENE,72,0.0,1.0,89,0.00,,,0.00,Wunderground v.1.15,2013-10-05 11:50:00,
2013-10-05 07:54:00,75.6,71.8,29.98,ENE,68,1.0,-999.0,88,0.00,,,0.00,Wunderground v.1.15,2013-10-05 11:54:00,
2013-10-05 07:59:00,76.1,71.9,29.98,ENE,68,0.0,-999.0,87,0.00,,,0.00,Wunderground v.1.15,2013-10-05 11:59:00,
2013-10-05 08:00:00,76.1,71.9,29.98,ENE,67,0.0,0.0,87,0.00,,,0.00,Wunderground v.1.15,2013-10-05 12:00:00,
2013-10-05 08:04:00,76.5,72.0,29.98,ENE,68,0.0,-999.0,86,0.00,,,0.00,Wunderground v.1.15,2013-10-05 12:04:00,
2013-10-05 08:09:00,76.9,72.4,29.98,ENE,67,0.0,1.0,86,0.00,,,0.00,Wunderground v.1.15,2013-10-05 12:09:00,
2013-10-05 08:14:00,77.3,72.4,29.99,ENE,75,0.0,1.0,85,0.00,,,0.00,Wunderground v.1.15,2013-10-05 12:14:00,
2013-10-05 08:19:00,77.9,73.0,29.99,ENE,68,0.0,-999.0,85,0.00,,,0.00,Wunderground v.1.15,2013-10-05 12:19:00,
2013-10-05 08:24:00,78.4,73.2,29.99,ENE,74,0.0,0.0,84,0.00,,,0.00,Wunderground v.1.15,2013-10-05 12:24:00,
2013-10-05 08:29:00,79.0,73.4,29.99,N/A,-737280,0.0,-999.0,83,0.00,,,0.00,Wunderground v.1.15,2013-10-05 12:29:00,
2013-10-05 08:34:00,79.4,73.1,29.99,ENE,68,0.0,-999.0,81,0.00,,,0.00,Wunderground v.1.15,2013-10-05 12:34:00,
2013-10-05 08:35:00,79.4,73.1,29.99,ENE,64,0.0,1.0,81,0.00,,,0.00,Wunderground v.1.15,2013-10-05 12:35:00,
2013-10-05 08:39:00,79.8,73.4,30.00,ENE,68,0.0,-999.0,81,0.00,,,0.00,Wunderground v.1.15,2013-10-05 12:39:00,
2013-10-05 08:44:00,80.3,73.2,30.00,East,86,0.0,1.0,79,0.00,,,0.00,Wunderground v.1.15,2013-10-05 12:44:00,
2013-10-05 08:49:00,80.8,73.7,30.00,ENE,68,1.0,-999.0,79,0.00,,,0.00,Wunderground v.1.15,2013-10-05 12:49:00,
2013-10-05 08:54:00,81.1,73.6,30.00,East,81,1.0,1.0,78,0.00,,,0.00,Wunderground v.1.15,2013-10-05 12:54:00,
2013-10-05 08:59:00,81.5,73.2,30.00,ENE,68,2.0,-999.0,76,0.00,,,0.00,Wunderground v.1.15,2013-10-05 12:59:00,
2013-10-05 09:00:00,81.5,73.2,30.00,East,89,1.0,2.0,76,0.00,,,0.00,Wunderground v.1.15,2013-10-05 13:00:00,
2013-10-05 09:04:00,82.0,72.9,30.00,East,90,2.0,-999.0,74,0.00,,,0.00,Wunderground v.1.15,2013-10-05 13:04:00,
2013-10-05 09:09:00,82.3,72.8,30.00,ESE,120,2.0,2.0,73,0.00,,,0.00,Wunderground v.1.15,2013-10-05 13:09:00,
2013-10-05 09:14:00,82.1,72.6,30.00,ENE,68,3.0,-999.0,73,0.00,,,0.00,Wunderground v.1.15,2013-10-05 13:14:00,
2013-10-05 09:15:00,82.1,72.6,30.00,ENE,74,2.0,2.0,73,0.00,,,0.00,Wunderground v.1.15,2013-10-05 13:15:00,
2013-10-05 09:19:00,82.3,72.8,30.00,ENE,68,3.0,-999.0,73,0.00,,,0.00,Wunderground v.1.15,2013-10-05 13:19:00,
2013-10-05 09:24:00,82.5,73.0,30.00,ENE,68,3.0,-999.0,73,0.00,,,0.00,Wunderground v.1.15,2013-10-05 13:24:00,
2013-10-05 09:25:00,82.5,73.0,30.00,NE,40,3.0,6.0,73,0.00,,,0.00,Wunderground v.1.15,2013-10-05 13:25:00,
2013-10-05 09:29:00,82.7,73.2,30.00,East,90,3.0,-999.0,73,0.00,,,0.00,Wunderground v.1.15,2013-10-05 13:29:00,
2013-10-05 09:34:00,82.7,73.6,30.00,SE,125,3.0,4.0,74,0.00,,,0.00,Wunderground v.1.15,2013-10-05 13:34:00,
2013-10-05 09:39:00,82.8,73.3,30.00,ENE,68,3.0,-999.0,73,0.00,,,0.00,Wunderground v.1.15,2013-10-05 13:39:00,
2013-10-05 09:44:00,82.7,73.6,30.00,ENE,68,3.0,-999.0,74,0.00,,,0.00,Wunderground v.1.15,2013-10-05 13:44:00,
2013-10-05 09:45:00,82.7,73.6,30.00,ENE,70,3.0,5.0,74,0.00,,,0.00,Wunderground v.1.15,2013-10-05 13:45:00,
2013-10-05 09:49:00,82.5,73.4,30.01,ENE,68,3.0,-999.0,74,0.00,,,0.00,Wunderground v.1.15,2013-10-05 13:49:00,
2013-10-05 09:54:00,82.8,74.1,30.01,ENE,68,3.0,-999.0,75,0.00,,,0.00,Wunderground v.1.15,2013-10-05 13:54:00,
2013-10-05 09:55:00,82.8,74.1,30.01,ENE,61,3.0,5.0,75,0.00,,,0.00,Wunderground v.1.15,2013-10-05 13:55:00,
2013-10-05 09:59:00,83.0,73.4,30.01,ENE,68,3.0,-999.0,73,0.00,,,0.00,Wunderground v.1.15,2013-10-05 13:59:00,
2013-10-05 10:00:00,83.1,73.5,30.01,East,98,3.0,4.0,73,0.00,,,0.00,Wunderground v.1.15,2013-10-05 14:00:00,
2013-10-05 10:04:00,83.6,74.0,30.01,ENE,68,3.0,-999.0,73,0.00,,,0.00,Wunderground v.1.15,2013-10-05 14:04:00,
2013-10-05 10:09:00,83.4,73.4,30.01,ENE,67,3.0,3.0,72,0.00,,,0.00,Wunderground v.1.15,2013-10-05 14:09:00,
2013-10-05 10:14:00,83.4,73.8,30.01,ENE,68,4.0,-999.0,73,0.00,,,0.00,Wunderground v.1.15,2013-10-05 14:14:00,
2013-10-05 10:19:00,83.4,73.4,30.01,East,94,4.0,4.0,72,0.00,,,0.00,Wunderground v.1.15,2013-10-05 14:19:00,
2013-10-05 10:24:00,83.6,74.0,30.01,ENE,68,2.0,-999.0,73,0.00,,,0.00,Wunderground v.1.15,2013-10-05 14:24:00,
2013-10-05 10:29:00,84.1,74.1,30.01,ENE,68,2.0,-999.0,72,0.00,,,0.00,Wunderground v.1.15,2013-10-05 14:29:00,
2013-10-05 10:30:00,84.1,74.1,30.01,ESE,123,2.0,2.0,72,0.00,,,0.00,Wunderground v.1.15,2013-10-05 14:30:00,
2013-10-05 10:34:00,84.6,73.7,30.01,ENE,68,2.0,-999.0,70,0.00,,,0.00,Wunderground v.1.15,2013-10-05 14:34:00,
2013-10-05 10:39:00,84.8,73.5,30.01,ENE,69,2.0,2.0,69,0.00,,,0.00,Wunderground v.1.15,2013-10-05 14:39:00,
2013-10-05 10:44:00,84.8,73.5,30.02,East,90,3.0,-999.0,69,0.00,,,0.00,Wunderground v.1.15,2013-10-05 14:44:00,
2013-10-05 10:49:00,84.8,73.5,30.02,NE,53,3.0,3.0,69,0.00,,,0.00,Wunderground v.1.15,2013-10-05 14:49:00,
2013-10-05 10:54:00,84.6,73.3,30.02,ENE,68,4.0,-999.0,69,0.00,,,0.00,Wunderground v.1.15,2013-10-05 14:54:00,
2013-10-05 10:59:00,84.8,73.9,30.01,ESE,113,2.0,-999.0,70,0.00,,,0.00,Wunderground v.1.15,2013-10-05 14:59:00,
2013-10-05 11:00:00,84.8,73.9,30.01,SE,129,3.0,3.0,70,0.00,,,0.00,Wunderground v.1.15,2013-10-05 15:00:00,
2013-10-05 11:04:00,84.8,72.6,30.01,ENE,68,3.0,-999.0,67,0.00,,,0.00,Wunderground v.1.15,2013-10-05 15:04:00,
2013-10-05 11:09:00,85.1,73.8,30.01,East,90,3.0,-999.0,69,0.00,,,0.00,Wunderground v.1.15,2013-10-05 15:09:00,
2013-10-05 11:10:00,85.1,73.8,30.01,East,79,3.0,4.0,69,0.00,,,0.00,Wunderground v.1.15,2013-10-05 15:10:00,
2013-10-05 11:14:00,85.1,72.9,30.01,ESE,113,3.0,-999.0,67,0.00,,,0.00,Wunderground v.1.15,2013-10-05 15:14:00,
2013-10-05 11:19:00,85.4,73.6,30.01,East,90,3.0,-999.0,68,0.00,,,0.00,Wunderground v.1.15,2013-10-05 15:19:00,
2013-10-05 11:20:00,85.4,73.6,30.01,East,95,3.0,5.0,68,0.00,,,0.00,Wunderground v.1.15,2013-10-05 15:20:00,
2013-10-05 11:24:00,85.5,73.3,30.01,East,90,2.0,-999.0,67,0.00,,,0.00,Wunderground v.1.15,2013-10-05 15:24:00,
2013-10-05 11:29:00,85.0,72.8,30.01,ENE,77,3.0,3.0,67,0.00,,,0.00,Wunderground v.1.15,2013-10-05 15:29:00,
2013-10-05 11:34:00,85.4,73.6,30.01,ENE,68,2.0,-999.0,68,0.00,,,0.00,Wunderground v.1.15,2013-10-05 15:34:00,
2013-10-05 11:39:00,85.7,73.5,30.01,ESE,113,3.0,-999.0,67,0.00,,,0.00,Wunderground v.1.15,2013-10-05 15:39:00,
2013-10-05 11:40:00,85.7,73.5,30.01,East,97,2.0,4.0,67,0.00,,,0.00,Wunderground v.1.15,2013-10-05 15:40:00,
2013-10-05 11:44:00,86.0,73.8,30.01,East,90,2.0,-999.0,67,0.00,,,0.00,Wunderground v.1.15,2013-10-05 15:44:00,
2013-10-05 11:49:00,85.8,73.1,30.01,East,90,3.0,-999.0,66,0.00,,,0.00,Wunderground v.1.15,2013-10-05 15:49:00,
2013-10-05 11:50:00,85.8,73.1,30.01,ENE,58,3.0,5.0,66,0.00,,,0.00,Wunderground v.1.15,2013-10-05 15:50:00,
2013-10-05 11:54:00,85.7,73.5,30.01,East,90,3.0,-999.0,67,0.00,,,0.00,Wunderground v.1.15,2013-10-05 15:54:00,
2013-10-05 11:59:00,85.8,72.7,30.01,ENE,68,3.0,-999.0,65,0.00,,,0.00,Wunderground v.1.15,2013-10-05 15:59:00,
2013-10-05 12:00:00,85.8,72.7,30.01,East,96,3.0,3.0,65,0.00,,,0.00,Wunderground v.1.15,2013-10-05 16:00:00,
2013-10-05 12:04:00,86.1,74.3,30.01,ENE,68,2.0,-999.0,68,0.00,,,0.00,Wunderground v.1.15,2013-10-05 16:04:00,
2013-10-05 12:09:00,86.0,72.9,30.01,East,79,3.0,4.0,65,0.00,,,0.00,Wunderground v.1.15,2013-10-05 16:09:00,
2013-10-05 12:14:00,86.0,71.5,30.01,East,90,3.0,-999.0,62,0.00,,,0.00,Wunderground v.1.15,2013-10-05 16:14:00,
2013-10-05 12:19:00,86.3,72.7,30.01,SE,124,3.0,3.0,64,0.00,,,0.00,Wunderground v.1.15,2013-10-05 16:19:00,
2013-10-05 12:24:00,86.8,73.6,30.01,East,90,2.0,-999.0,65,0.00,,,0.00,Wunderground v.1.15,2013-10-05 16:24:00,
2013-10-05 12:29:00,86.9,72.8,30.01,East,90,2.0,-999.0,63,0.00,,,0.00,Wunderground v.1.15,2013-10-05 16:29:00,
2013-10-05 12:30:00,86.9,72.8,30.01,ESE,114,2.0,2.0,63,0.00,,,0.00,Wunderground v.1.15,2013-10-05 16:30:00,
2013-10-05 12:34:00,86.2,74.0,30.00,ENE,68,3.0,-999.0,67,0.00,,,0.00,Wunderground v.1.15,2013-10-05 16:34:00,
2013-10-05 12:39:00,86.3,73.6,30.00,ENE,76,3.0,3.0,66,0.00,,,0.00,Wunderground v.1.15,2013-10-05 16:39:00,
2013-10-05 12:44:00,86.2,74.4,30.00,ENE,68,2.0,-999.0,68,0.00,,,0.00,Wunderground v.1.15,2013-10-05 16:44:00,
2013-10-05 12:49:00,86.8,74.1,30.00,ESE,114,2.0,2.0,66,0.00,,,0.00,Wunderground v.1.15,2013-10-05 16:49:00,
2013-10-05 12:54:00,86.4,73.7,30.00,ENE,68,2.0,-999.0,66,0.00,,,0.00,Wunderground v.1.15,2013-10-05 16:54:00,
2013-10-05 12:59:00,86.7,74.9,30.00,ENE,68,2.0,-999.0,68,0.00,,,0.00,Wunderground v.1.15,2013-10-05 16:59:00,
2013-10-05 13:00:00,86.7,74.9,30.00,ENE,71,2.0,2.0,68,0.00,,,0.00,Wunderground v.1.15,2013-10-05 17:00:00,
2013-10-05 13:04:00,86.6,74.3,30.00,ESE,113,2.0,-999.0,67,0.00,,,0.00,Wunderground v.1.15,2013-10-05 17:04:00,
2013-10-05 13:09:00,86.7,74.4,29.99,ENE,75,2.0,2.0,67,0.00,,,0.00,Wunderground v.1.15,2013-10-05 17:09:00,
2013-10-05 13:14:00,86.5,74.2,29.99,ENE,68,3.0,-999.0,67,0.00,,,0.00,Wunderground v.1.15,2013-10-05 17:14:00,
2013-10-05 13:15:00,86.5,74.7,29.99,ENE,76,2.0,2.0,68,0.00,,,0.00,Wunderground v.1.15,2013-10-05 17:15:00,
2013-10-05 13:19:00,86.8,74.1,29.99,East,90,2.0,-999.0,66,0.00,,,0.00,Wunderground v.1.15,2013-10-05 17:19:00,
2013-10-05 13:24:00,87.0,73.8,29.99,ESE,113,2.0,-999.0,65,0.00,,,0.00,Wunderground v.1.15,2013-10-05 17:24:00,
2013-10-05 13:25:00,87.0,73.8,29.99,SE,125,2.0,3.0,65,0.00,,,0.00,Wunderground v.1.15,2013-10-05 17:25:00,
2013-10-05 13:29:00,86.9,73.3,29.99,ENE,68,3.0,-999.0,64,0.00,,,0.00,Wunderground v.1.15,2013-10-05 17:29:00,
2013-10-05 13:34:00,86.5,72.9,29.99,SSW,201,3.0,3.0,64,0.00,,,0.00,Wunderground v.1.15,2013-10-05 17:34:00,
2013-10-05 13:39:00,86.5,73.3,29.98,ENE,68,2.0,-999.0,65,0.00,,,0.00,Wunderground v.1.15,2013-10-05 17:39:00,
2013-10-05 13:40:00,86.5,73.3,29.98,ESE,109,3.0,3.0,65,0.00,,,0.00,Wunderground v.1.15,2013-10-05 17:40:00,
2013-10-05 13:44:00,86.5,73.3,29.98,ENE,68,3.0,-999.0,65,0.00,,,0.00,Wunderground v.1.15,2013-10-05 17:44:00,
2013-10-05 13:49:00,86.4,73.2,29.98,ENE,74,3.0,3.0,65,0.00,,,0.00,Wunderground v.1.15,2013-10-05 17:49:00,
2013-10-05 13:54:00,86.2,73.5,29.98,ENE,68,3.0,-999.0,66,0.00,,,0.00,Wunderground v.1.15,2013-10-05 17:54:00,
2013-10-05 13:59:00,85.7,73.5,29.98,ENE,68,4.0,-999.0,67,0.00,,,0.00,Wunderground v.1.15,2013-10-05 17:59:00,
2013-10-05 14:00:00,85.7,73.5,29.98,East,82,3.0,3.0,67,0.00,,,0.00,Wunderground v.1.15,2013-10-05 18:00:00,
2013-10-05 14:04:00,85.9,73.7,29.97,ENE,68,3.0,-999.0,67,0.00,,,0.00,Wunderground v.1.15,2013-10-05 18:04:00,
2013-10-05 14:09:00,85.8,74.0,29.97,ENE,58,3.0,5.0,68,0.00,,,0.00,Wunderground v.1.15,2013-10-05 18:09:00,
2013-10-05 14:14:00,86.3,74.5,29.97,East,90,2.0,-999.0,68,0.00,,,0.00,Wunderground v.1.15,2013-10-05 18:14:00,
2013-10-05 14:15:00,86.3,74.5,29.97,SSE,148,3.0,5.0,68,0.00,,,0.00,Wunderground v.1.15,2013-10-05 18:15:00,
2013-10-05 14:19:00,86.3,74.5,29.97,ENE,68,3.0,-999.0,68,0.00,,,0.00,Wunderground v.1.15,2013-10-05 18:19:00,
2013-10-05 14:24:00,86.4,74.6,29.97,ENE,58,3.0,4.0,68,0.00,,,0.00,Wunderground v.1.15,2013-10-05 18:24:00,
2013-10-05 14:29:00,86.5,75.5,29.97,ENE,68,2.0,-999.0,70,0.00,,,0.00,Wunderground v.1.15,2013-10-05 18:29:00,
2013-10-05 14:34:00,86.2,74.0,29.96,NE,56,3.0,3.0,67,0.00,,,0.00,Wunderground v.1.15,2013-10-05 18:34:00,
2013-10-05 14:39:00,85.7,73.9,29.96,ENE,68,3.0,-999.0,68,0.00,,,0.00,Wunderground v.1.15,2013-10-05 18:39:00,
2013-10-05 14:40:00,85.7,73.9,29.96,ENE,67,4.0,4.0,68,0.00,,,0.00,Wunderground v.1.15,2013-10-05 18:40:00,
2013-10-05 14:44:00,86.1,73.9,29.96,ENE,68,3.0,-999.0,67,0.00,,,0.00,Wunderground v.1.15,2013-10-05 18:44:00,
2013-10-05 14:49:00,85.9,74.1,29.96,ENE,68,3.0,-999.0,68,0.00,,,0.00,Wunderground v.1.15,2013-10-05 18:49:00,
2013-10-05 14:50:00,85.9,74.1,29.96,East,82,3.0,3.0,68,0.00,,,0.00,Wunderground v.1.15,2013-10-05 18:50:00,
2013-10-05 14:54:00,86.4,73.7,29.96,ENE,68,2.0,-999.0,66,0.00,,,0.00,Wunderground v.1.15,2013-10-05 18:54:00,
2013-10-05 14:59:00,86.3,74.0,29.95,East,90,2.0,-999.0,67,0.00,,,0.00,Wunderground v.1.15,2013-10-05 18:59:00,
2013-10-05 15:00:00,86.3,74.0,29.95,ENE,76,2.0,2.0,67,0.00,,,0.00,Wunderground v.1.15,2013-10-05 19:00:00,
2013-10-05 15:04:00,86.3,74.0,29.95,ENE,68,3.0,-999.0,67,0.00,,,0.00,Wunderground v.1.15,2013-10-05 19:04:00,
2013-10-05 15:09:00,86.8,74.5,29.95,ESE,120,2.0,2.0,67,0.00,,,0.00,Wunderground v.1.15,2013-10-05 19:09:00,
2013-10-05 15:14:00,86.7,73.5,29.95,SE,135,2.0,-999.0,65,0.00,,,0.00,Wunderground v.1.15,2013-10-05 19:14:00,
2013-10-05 15:19:00,86.7,74.4,29.95,SSE,153,2.0,2.0,67,0.00,,,0.00,Wunderground v.1.15,2013-10-05 19:19:00,
2013-10-05 15:24:00,87.0,74.7,29.95,East,90,2.0,-999.0,67,0.00,,,0.00,Wunderground v.1.15,2013-10-05 19:24:00,
2013-10-05 15:30:00,87.1,74.8,29.95,SSE,166,2.0,4.0,67,0.00,,,0.00,Wunderground v.1.15,2013-10-05 19:30:00,
2013-10-05 15:34:00,86.6,73.9,29.94,East,90,3.0,-999.0,66,0.00,,,0.00,Wunderground v.1.15,2013-10-05 19:34:00,
2013-10-05 15:39:00,86.4,73.7,29.94,ESE,109,3.0,5.0,66,0.00,,,0.00,Wunderground v.1.15,2013-10-05 19:39:00,
2013-10-05 15:44:00,85.9,74.1,29.94,ENE,68,3.0,-999.0,68,0.00,,,0.00,Wunderground v.1.15,2013-10-05 19:44:00,
2013-10-05 15:49:00,86.5,75.1,29.94,ENE,63,3.0,6.0,69,0.00,,,0.00,Wunderground v.1.15,2013-10-05 19:49:00,
2013-10-05 15:54:00,86.5,74.7,29.94,ENE,68,2.0,-999.0,68,0.00,,,0.00,Wunderground v.1.15,2013-10-05 19:54:00,
2013-10-05 15:55:00,86.5,74.7,29.94,East,96,2.0,6.0,68,0.00,,,0.00,Wunderground v.1.15,2013-10-05 19:55:00,
2013-10-05 15:59:00,86.1,73.9,29.94,ENE,68,3.0,-999.0,67,0.00,,,0.00,Wunderground v.1.15,2013-10-05 19:59:00,
2013-10-05 16:00:00,86.1,73.9,29.94,ENE,64,3.0,3.0,67,0.00,,,0.00,Wunderground v.1.15,2013-10-05 20:00:00,
2013-10-05 16:04:00,85.8,74.9,29.94,ENE,68,3.0,-999.0,70,0.00,,,0.00,Wunderground v.1.15,2013-10-05 20:04:00,
2013-10-05 16:09:00,86.5,75.1,29.94,ENE,68,2.0,-999.0,69,0.00,,,0.00,Wunderground v.1.15,2013-10-05 20:09:00,
2013-10-05 16:10:00,86.5,75.1,29.94,East,98,2.0,2.0,69,0.00,,,0.00,Wunderground v.1.15,2013-10-05 20:10:00,
2013-10-05 16:14:00,86.5,74.2,29.94,East,90,2.0,-999.0,67,0.00,,,0.00,Wunderground v.1.15,2013-10-05 20:14:00,
2013-10-05 16:19:00,86.2,74.4,29.94,ENE,68,3.0,-999.0,68,0.00,,,0.00,Wunderground v.1.15,2013-10-05 20:19:00,
2013-10-05 16:20:00,86.2,74.4,29.94,ENE,70,2.0,3.0,68,0.00,,,0.00,Wunderground v.1.15,2013-10-05 20:20:00,
2013-10-05 16:24:00,85.8,74.9,29.93,ENE,68,3.0,-999.0,70,0.00,,,0.00,Wunderground v.1.15,2013-10-05 20:24:00,
2013-10-05 16:29:00,86.0,75.1,29.93,ENE,72,3.0,3.0,70,0.00,,,0.00,Wunderground v.1.15,2013-10-05 20:29:00,
2013-10-05 16:34:00,86.0,74.6,29.94,ENE,68,3.0,-999.0,69,0.00,,,0.00,Wunderground v.1.15,2013-10-05 20:34:00,
2013-10-05 16:39:00,85.7,74.8,29.94,East,90,2.0,-999.0,70,0.00,,,0.00,Wunderground v.1.15,2013-10-05 20:39:00,
2013-10-05 16:40:00,85.7,74.4,29.94,South,176,3.0,3.0,69,0.00,,,0.00,Wunderground v.1.15,2013-10-05 20:40:00,
2013-10-05 16:44:00,85.6,74.7,29.94,ENE,68,3.0,-999.0,70,0.00,,,0.00,Wunderground v.1.15,2013-10-05 20:44:00,
2013-10-05 16:49:00,85.6,75.5,29.94,ENE,66,3.0,5.0,72,0.00,,,0.00,Wunderground v.1.15,2013-10-05 20:49:00,
2013-10-05 16:54:00,85.3,75.2,29.94,ENE,68,3.0,-999.0,72,0.00,,,0.00,Wunderground v.1.15,2013-10-05 20:54:00,
2013-10-05 16:59:00,85.3,74.8,29.93,ENE,68,2.0,-999.0,71,0.00,,,0.00,Wunderground v.1.15,2013-10-05 20:59:00,
2013-10-05 17:00:00,85.3,74.8,29.93,NE,53,3.0,3.0,71,0.00,,,0.00,Wunderground v.1.15,2013-10-05 21:00:00,
2013-10-05 17:04:00,85.2,75.1,29.93,ENE,68,4.0,-999.0,72,0.00,,,0.00,Wunderground v.1.15,2013-10-05 21:04:00,
2013-10-05 17:09:00,85.4,75.8,29.94,SE,136,3.0,4.0,73,0.00,,,0.00,Wunderground v.1.15,2013-10-05 21:09:00,
2013-10-05 17:14:00,84.8,74.8,29.93,ENE,68,4.0,-999.0,72,0.00,,,0.00,Wunderground v.1.15,2013-10-05 21:14:00,
2013-10-05 17:19:00,84.6,75.4,29.93,ENE,61,4.0,4.0,74,0.00,,,0.00,Wunderground v.1.15,2013-10-05 21:19:00,
2013-10-05 17:24:00,84.8,75.2,29.93,ENE,68,3.0,-999.0,73,0.00,,,0.00,Wunderground v.1.15,2013-10-05 21:24:00,
2013-10-05 17:25:00,84.8,75.2,29.93,ENE,69,3.0,5.0,73,0.00,,,0.00,Wunderground v.1.15,2013-10-05 21:25:00,
2013-10-05 17:29:00,84.7,75.5,29.93,ENE,68,3.0,-999.0,74,0.00,,,0.00,Wunderground v.1.15,2013-10-05 21:29:00,
2013-10-05 17:34:00,84.4,75.2,29.93,SE,142,4.0,5.0,74,0.00,,,0.00,Wunderground v.1.15,2013-10-05 21:34:00,
2013-10-05 17:39:00,84.3,75.1,29.93,ENE,68,3.0,-999.0,74,0.00,,,0.00,Wunderground v.1.15,2013-10-05 21:39:00,
2013-10-05 17:44:00,84.3,75.1,29.93,East,89,3.0,5.0,74,0.00,,,0.00,Wunderground v.1.15,2013-10-05 21:44:00,
2013-10-05 17:49:00,84.5,75.3,29.93,ENE,68,3.0,-999.0,74,0.00,,,0.00,Wunderground v.1.15,2013-10-05 21:49:00,
2013-10-05 17:54:00,84.2,74.6,29.93,ENE,68,3.0,-999.0,73,0.00,,,0.00,Wunderground v.1.15,2013-10-05 21:54:00,
2013-10-05 17:55:00,84.2,74.6,29.93,ENE,67,3.0,4.0,73,0.00,,,0.00,Wunderground v.1.15,2013-10-05 21:55:00,
2013-10-05 17:59:00,84.4,74.8,29.93,East,90,3.0,-999.0,73,0.00,,,0.00,Wunderground v.1.15,2013-10-05 21:59:00,
2013-10-05 18:00:00,84.4,74.8,29.93,ENE,58,3.0,3.0,73,0.00,,,0.00,Wunderground v.1.15,2013-10-05 22:00:00,
2013-10-05 18:04:00,84.3,74.7,29.93,ENE,68,3.0,-999.0,73,0.00,,,0.00,Wunderground v.1.15,2013-10-05 22:04:00,
2013-10-05 18:09:00,84.2,74.2,29.93,ENE,68,3.0,-999.0,72,0.00,,,0.00,Wunderground v.1.15,2013-10-05 22:09:00,
2013-10-05 18:10:00,84.2,74.2,29.93,ENE,72,3.0,6.0,72,0.00,,,0.00,Wunderground v.1.15,2013-10-05 22:10:00,
2013-10-05 18:14:00,84.3,74.3,29.94,ENE,68,3.0,-999.0,72,0.00,,,0.00,Wunderground v.1.15,2013-10-05 22:14:00,
2013-10-05 18:19:00,84.3,73.9,29.94,ENE,68,4.0,-999.0,71,0.00,,,0.00,Wunderground v.1.15,2013-10-05 22:19:00,
2013-10-05 18:24:00,84.1,74.1,29.94,ESE,120,4.0,4.0,72,0.00,,,0.00,Wunderground v.1.15,2013-10-05 22:24:00,
2013-10-05 18:29:00,83.7,74.1,29.94,ENE,68,4.0,-999.0,73,0.00,,,0.00,Wunderground v.1.15,2013-10-05 22:29:00,
2013-10-05 18:34:00,83.4,73.8,29.94,ENE,74,3.0,4.0,73,0.00,,,0.00,Wunderground v.1.15,2013-10-05 22:34:00,
2013-10-05 18:39:00,83.6,74.4,29.94,East,90,2.0,-999.0,74,0.00,,,0.00,Wunderground v.1.15,2013-10-05 22:39:00,
2013-10-05 18:40:00,83.6,74.4,29.94,ENE,69,3.0,3.0,74,0.00,,,0.00,Wunderground v.1.15,2013-10-05 22:40:00,
2013-10-05 18:44:00,83.4,74.2,29.93,ESE,113,3.0,-999.0,74,0.00,,,0.00,Wunderground v.1.15,2013-10-05 22:44:00,
2013-10-05 18:49:00,83.2,75.2,29.94,SSE,153,3.0,3.0,77,0.00,,,0.00,Wunderground v.1.15,2013-10-05 22:49:00,
2013-10-05 18:54:00,82.9,74.9,29.94,East,90,3.0,-999.0,77,0.00,,,0.00,Wunderground v.1.15,2013-10-05 22:54:00,
2013-10-05 18:59:00,82.5,75.3,29.94,East,90,2.0,-999.0,79,0.00,,,0.00,Wunderground v.1.15,2013-10-05 22:59:00,
2013-10-05 19:00:00,82.5,75.3,29.94,SE,130,3.0,3.0,79,0.00,,,0.00,Wunderground v.1.15,2013-10-05 23:00:00,
2013-10-05 19:04:00,82.2,75.0,29.94,East,90,2.0,-999.0,79,0.00,,,0.00,Wunderground v.1.15,2013-10-05 23:04:00,
2013-10-05 19:09:00,81.9,74.7,29.94,ENE,68,2.0,2.0,79,0.00,,,0.00,Wunderground v.1.15,2013-10-05 23:09:00,
2013-10-05 19:14:00,81.9,74.4,29.94,East,90,3.0,-999.0,78,0.00,,,0.00,Wunderground v.1.15,2013-10-05 23:14:00,
2013-10-05 19:19:00,81.9,74.0,29.94,ENE,72,3.0,3.0,77,0.00,,,0.00,Wunderground v.1.15,2013-10-05 23:19:00,
2013-10-05 19:24:00,82.0,74.1,29.94,East,90,2.0,-999.0,77,0.00,,,0.00,Wunderground v.1.15,2013-10-05 23:24:00,
2013-10-05 19:25:00,82.0,74.1,29.94,ENE,64,3.0,3.0,77,0.00,,,0.00,Wunderground v.1.15,2013-10-05 23:25:00,
2013-10-05 19:29:00,82.1,74.2,29.94,ESE,113,2.0,-999.0,77,0.00,,,0.00,Wunderground v.1.15,2013-10-05 23:29:00,
2013-10-05 19:34:00,82.2,74.3,29.94,ENE,67,2.0,2.0,77,0.00,,,0.00,Wunderground v.1.15,2013-10-05 23:34:00,
2013-10-05 19:39:00,82.1,73.8,29.94,East,90,3.0,-999.0,76,0.00,,,0.00,Wunderground v.1.15,2013-10-05 23:39:00,
2013-10-05 19:44:00,82.1,73.4,29.94,ENE,72,3.0,5.0,75,0.00,,,0.00,Wunderground v.1.15,2013-10-05 23:44:00,
2013-10-05 19:49:00,82.1,73.4,29.95,East,90,3.0,-999.0,75,0.00,,,0.00,Wunderground v.1.15,2013-10-05 23:49:00,
2013-10-05 19:54:00,82.1,74.2,29.95,ESE,113,3.0,-999.0,77,0.00,,,0.00,Wunderground v.1.15,2013-10-05 23:54:00,
2013-10-05 19:55:00,82.1,74.2,29.95,ENE,64,3.0,4.0,77,0.00,,,0.00,Wunderground v.1.15,2013-10-05 23:55:00,
2013-10-05 19:59:00,82.1,74.6,29.95,ENE,68,3.0,-999.0,78,0.00,,,0.00,Wunderground v.1.15,2013-10-05 23:59:00,
2013-10-05 20:00:00,82.1,74.6,29.95,East,101,3.0,3.0,78,0.00,,,0.00,Wunderground v.1.15,2013-10-06 00:00:00,
2013-10-05 20:04:00,82.0,74.5,29.95,SE,135,2.0,-999.0,78,0.00,,,0.00,Wunderground v.1.15,2013-10-06 00:04:00,
2013-10-05 20:09:00,81.9,74.4,29.95,East,90,3.0,-999.0,78,0.00,,,0.00,Wunderground v.1.15,2013-10-06 00:09:00,
2013-10-05 20:10:00,81.9,74.4,29.95,SE,136,3.0,3.0,78,0.00,,,0.00,Wunderground v.1.15,2013-10-06 00:10:00,
2013-10-05 20:14:00,82.0,74.8,29.95,ENE,68,3.0,-999.0,79,0.00,,,0.00,Wunderground v.1.15,2013-10-06 00:14:00,
2013-10-05 20:19:00,81.7,74.9,29.95,ESE,113,3.0,3.0,80,0.00,,,0.00,Wunderground v.1.15,2013-10-06 00:19:00,
2013-10-05 20:24:00,81.7,75.3,29.95,ENE,68,3.0,-999.0,81,0.00,,,0.00,Wunderground v.1.15,2013-10-06 00:24:00,
2013-10-05 20:29:00,81.6,74.8,29.95,ENE,60,3.0,4.0,80,0.00,,,0.00,Wunderground v.1.15,2013-10-06 00:29:00,
2013-10-05 20:34:00,81.4,74.3,29.95,ENE,68,3.0,-999.0,79,0.00,,,0.00,Wunderground v.1.15,2013-10-06 00:34:00,
2013-10-05 20:35:00,81.4,74.3,29.95,East,79,3.0,4.0,79,0.00,,,0.00,Wunderground v.1.15,2013-10-06 00:35:00,
2013-10-05 20:39:00,81.5,74.4,29.95,ENE,68,3.0,-999.0,79,0.00,,,0.00,Wunderground v.1.15,2013-10-06 00:39:00,
2013-10-05 20:44:00,81.4,73.1,29.96,ENE,68,3.0,-999.0,76,0.00,,,0.00,Wunderground v.1.15,2013-10-06 00:44:00,
2013-10-05 20:45:00,81.4,73.1,29.96,ESE,108,3.0,3.0,76,0.00,,,0.00,Wunderground v.1.15,2013-10-06 00:45:00,
2013-10-05 20:49:00,81.7,73.8,29.96,ENE,68,3.0,-999.0,77,0.00,,,0.00,Wunderground v.1.15,2013-10-06 00:49:00,
2013-10-05 20:54:00,81.8,73.9,29.96,ENE,60,3.0,4.0,77,0.00,,,0.00,Wunderground v.1.15,2013-10-06 00:54:00,
2013-10-05 20:59:00,81.8,74.3,29.96,East,90,2.0,-999.0,78,0.00,,,0.00,Wunderground v.1.15,2013-10-06 00:59:00,
2013-10-05 21:00:00,81.8,74.3,29.96,East,101,2.0,2.0,78,0.00,,,0.00,Wunderground v.1.15,2013-10-06 01:00:00,
2013-10-05 21:04:00,81.7,74.5,29.96,East,90,2.0,-999.0,79,0.00,,,0.00,Wunderground v.1.15,2013-10-06 01:04:00,
2013-10-05 21:09:00,81.6,74.5,29.96,ESE,113,2.0,-999.0,79,0.00,,,0.00,Wunderground v.1.15,2013-10-06 01:09:00,
2013-10-05 21:10:00,81.6,74.5,29.96,SE,129,2.0,5.0,79,0.00,,,0.00,Wunderground v.1.15,2013-10-06 01:10:00,
2013-10-05 21:14:00,81.5,74.4,29.96,ENE,68,3.0,-999.0,79,0.00,,,0.00,Wunderground v.1.15,2013-10-06 01:14:00,
2013-10-05 21:19:00,81.5,74.4,29.96,ENE,66,3.0,3.0,79,0.00,,,0.00,Wunderground v.1.15,2013-10-06 01:19:00,
2013-10-05 21:24:00,81.6,74.5,29.97,ENE,68,2.0,-999.0,79,0.00,,,0.00,Wunderground v.1.15,2013-10-06 01:24:00,
2013-10-05 21:29:00,81.6,74.8,29.97,ESE,120,2.0,2.0,80,0.00,,,0.00,Wunderground v.1.15,2013-10-06 01:29:00,
2013-10-05 21:34:00,81.5,74.7,29.97,ENE,68,2.0,-999.0,80,0.00,,,0.00,Wunderground v.1.15,2013-10-06 01:34:00,
2013-10-05 21:35:00,81.5,74.7,29.97,ENE,67,2.0,2.0,80,0.00,,,0.00,Wunderground v.1.15,2013-10-06 01:35:00,
2013-10-05 21:39:00,81.5,74.7,29.97,ENE,68,3.0,-999.0,80,0.00,,,0.00,Wunderground v.1.15,2013-10-06 01:39:00,
2013-10-05 21:44:00,81.5,74.7,29.97,ENE,64,3.0,3.0,80,0.00,,,0.00,Wunderground v.1.15,2013-10-06 01:44:00,
2013-10-05 21:49:00,81.5,74.4,29.97,ENE,68,2.0,-999.0,79,0.00,,,0.00,Wunderground v.1.15,2013-10-06 01:49:00,
2013-10-05 21:54:00,81.4,74.3,29.97,SE,141,2.0,4.0,79,0.00,,,0.00,Wunderground v.1.15,2013-10-06 01:54:00,
2013-10-05 21:59:00,81.4,74.3,29.97,ENE,68,2.0,-999.0,79,0.00,,,0.00,Wunderground v.1.15,2013-10-06 01:59:00,
2013-10-05 22:00:00,81.4,74.3,29.97,East,80,2.0,2.0,79,0.00,,,0.00,Wunderground v.1.15,2013-10-06 02:00:00,
2013-10-05 22:04:00,81.4,74.3,29.97,SE,135,2.0,-999.0,79,0.00,,,0.00,Wunderground v.1.15,2013-10-06 02:04:00,
2013-10-05 22:09:00,81.4,74.3,29.97,East,101,2.0,2.0,79,0.00,,,0.00,Wunderground v.1.15,2013-10-06 02:09:00,
2013-10-05 22:14:00,81.3,74.2,29.97,East,90,3.0,-999.0,79,0.00,,,0.00,Wunderground v.1.15,2013-10-06 02:14:00,
2013-10-05 22:19:00,81.4,74.6,29.97,ESE,109,2.0,2.0,80,0.00,,,0.00,Wunderground v.1.15,2013-10-06 02:19:00,
2013-10-05 22:24:00,81.4,74.6,29.97,ENE,68,3.0,-999.0,80,0.00,,,0.00,Wunderground v.1.15,2013-10-06 02:24:00,
2013-10-05 22:25:00,81.4,74.6,29.97,NE,51,2.0,3.0,80,0.00,,,0.00,Wunderground v.1.15,2013-10-06 02:25:00,
2013-10-05 22:29:00,81.4,74.6,29.97,SE,135,2.0,-999.0,80,0.00,,,0.00,Wunderground v.1.15,2013-10-06 02:29:00,
2013-10-05 22:34:00,81.4,74.6,29.97,East,84,2.0,2.0,80,0.00,,,0.00,Wunderground v.1.15,2013-10-06 02:34:00,
2013-10-05 22:39:00,81.4,74.3,29.97,East,90,2.0,-999.0,79,0.00,,,0.00,Wunderground v.1.15,2013-10-06 02:39:00,
2013-10-05 22:44:00,81.3,74.2,29.97,East,94,2.0,6.0,79,0.00,,,0.00,Wunderground v.1.15,2013-10-06 02:44:00,
2013-10-05 22:49:00,81.3,73.8,29.97,East,90,2.0,-999.0,78,0.00,,,0.00,Wunderground v.1.15,2013-10-06 02:49:00,
2013-10-05 22:50:00,81.3,73.8,29.97,East,80,2.0,2.0,78,0.00,,,0.00,Wunderground v.1.15,2013-10-06 02:50:00,
2013-10-05 22:54:00,81.3,73.8,29.98,ESE,113,3.0,-999.0,78,0.00,,,0.00,Wunderground v.1.15,2013-10-06 02:54:00,
2013-10-05 22:59:00,81.4,73.9,29.98,SE,135,1.0,-999.0,78,0.00,,,0.00,Wunderground v.1.15,2013-10-06 02:59:00,
2013-10-05 23:00:00,81.4,74.3,29.98,ENE,61,2.0,2.0,79,0.00,,,0.00,Wunderground v.1.15,2013-10-06 03:00:00,
2013-10-05 23:04:00,81.3,74.2,29.97,ESE,113,1.0,-999.0,79,0.00,,,0.00,Wunderground v.1.15,2013-10-06 03:04:00,
2013-10-05 23:09:00,81.3,74.2,29.97,ESE,113,2.0,-999.0,79,0.00,,,0.00,Wunderground v.1.15,2013-10-06 03:09:00,
2013-10-05 23:10:00,81.3,74.2,29.97,ENE,66,1.0,1.0,79,0.00,,,0.00,Wunderground v.1.15,2013-10-06 03:10:00,
2013-10-05 23:14:00,81.3,74.2,29.97,East,90,1.0,-999.0,79,0.00,,,0.00,Wunderground v.1.15,2013-10-06 03:14:00,
2013-10-05 23:19:00,81.3,74.2,29.97,SE,127,2.0,2.0,79,0.00,,,0.00,Wunderground v.1.15,2013-10-06 03:19:00,
2013-10-05 23:24:00,81.3,74.2,29.98,East,90,2.0,-999.0,79,0.00,,,0.00,Wunderground v.1.15,2013-10-06 03:24:00,
2013-10-05 23:29:00,81.3,74.2,29.97,East,90,2.0,-999.0,79,0.00,,,0.00,Wunderground v.1.15,2013-10-06 03:29:00,
2013-10-05 23:30:00,81.3,74.2,29.97,East,95,2.0,4.0,79,0.00,,,0.00,Wunderground v.1.15,2013-10-06 03:30:00,
2013-10-05 23:34:00,81.3,74.2,29.97,ENE,68,2.0,-999.0,79,0.00,,,0.00,Wunderground v.1.15,2013-10-06 03:34:00,
2013-10-05 23:35:00,81.3,74.2,29.97,East,90,2.0,4.0,79,0.00,,,0.00,Wunderground v.1.15,2013-10-06 03:35:00,
2013-10-05 23:39:00,81.4,74.6,29.97,East,90,2.0,-999.0,80,0.00,,,0.00,Wunderground v.1.15,2013-10-06 03:39:00,
2013-10-05 23:44:00,81.4,74.6,29.97,ESE,113,2.0,-999.0,80,0.00,,,0.00,Wunderground v.1.15,2013-10-06 03:44:00,
2013-10-05 23:45:00,81.4,74.6,29.97,ESE,103,2.0,2.0,80,0.00,,,0.00,Wunderground v.1.15,2013-10-06 03:45:00,
2013-10-05 23:49:00,81.4,75.0,29.97,East,90,2.0,-999.0,81,0.00,,,0.00,Wunderground v.1.15,2013-10-06 03:49:00,
2013-10-05 23:54:00,81.5,75.1,29.97,ESE,105,2.0,4.0,81,0.00,,,0.00,Wunderground v.1.15,2013-10-06 03:54:00,
2013-10-05 23:59:00,81.4,74.6,29.97,SE,135,2.0,-999.0,80,0.00,,,0.00,Wunderground v.1.15,2013-10-06 03:59:00,